Inicio METAR Ruta Wind Satelite

Informe Meteorológico

Fecha: 2020/07/02 00:27:26 Local
2020.07.02 05:27 UTC


Estado: VENCIDO
Operación:VFR
Ipiales / San Luis, Colombia (SKIP) 00-49N 077-38W
2020.07.01 1900 UTC
Wind: from the ESE (120 degrees) at 10 MPH (9 KT):0
Visibility: greater than 7 mile(s):0
Sky conditions: partly cloudy
Temperature: 59 F (15 C)
Dew Point: 46 F (8 C)
Relative Humidity: 62%
Pressure (altimeter): 30.36 in. Hg (1028 hPa)
ob: SKIP 011900Z 12009KT 9999 SCT018 15/08 A3036
cycle: 19

SKIP 011800Z 11010KT 9999 BKN018 15/09 A3038
SKIP 011700Z 14011KT 9999 BKN018 13/08 A3040
SKIP 011600Z 10004KT 9999 SCT018 13/08 A3042
SKIP 011500Z 00000KT 9999 SCT018 SCT080 13/08 A3043
SKIP 011400Z 00000KT 9999 FEW018 12/08 A3042